Latest Coastal Weather Observations for Maatsuyker Island

IDT60701

Issued at 1:42 pm EST Saturday 19 August 2017 (issued every 10 minutes, with the page automatically refreshed every 10 minutes)

About coastal observations | Map of coastal stations | Coastal observations for TAS | Marine services | Other Formats
Station Details ID: 094041 Name: MAATSUYKER ISLAND LIGHTHOUSE Lat: -43.66 Lon: 146.27 Height: 146.5 m
Data from the previous 72 hours. | See also: Recent months at Maatsuyker Island
Date/Time
EST
Temp
°C
Wind Pressure Rain since
9am
mm
Weather Cloud Vis
km
Sea
Height
m
Swell
Dir  Spd
kts
Gust
kts
hPa Trend Height
m
Period
s
Dir
19/01:30pm 8.4 WNW 17 22 1022.7 - 0.0 - - - - - - -
19/01:00pm 8.6 WNW 19 23 1022.7 - 0.0 - - - - - - -
19/12:30pm 7.5 W 16 21 1022.7 - 0.0 - - - - - - -
19/12:00pm 8.3 WNW 19 24 1022.9 - 0.0 - - - - - - -
19/11:30am 7.3 WNW 19 25 1022.9 - 0.0 - - - - - - -
19/11:00am 6.0 WNW 22 30 1022.8 - 0.0 - - - - - - -
19/10:52am 6.3 WNW 26 30 1023.0 - 0.0 - - - - - - -
19/10:49am 6.3 W 20 30 1023.1 - 0.0 - - - - - - -
19/10:33am 7.3 W 17 22 1022.9 - 0.0 - - - - - - -
19/10:30am 7.6 WNW 21 25 1022.8 - 0.0 - - - - - - -
19/10:00am 7.0 WNW 19 23 1022.8 - 0.0 - - - - - - -
19/09:30am 6.7 WNW 18 22 1022.8 - 0.0 - - - - - - -
19/09:14am 6.9 WNW 21 25 1022.6 - 0.0 - - - - - - -
19/09:00am 6.5 W 17 25 1022.9 R 1.2 Distant precip. Partly cloudy 25 2 2.5 13 SW
19/08:49am 6.4 W 13 18 1022.6 - 1.2 - - - - - - -
19/08:30am 6.0 WNW 21 27 1022.2 - 1.2 - - - - - - -
19/08:00am 6.7 W 17 23 1022.1 - 1.2 - - - - - - -
19/07:30am 6.3 WNW 18 22 1021.6 - 1.2 - - - - - - -
19/07:00am 6.1 WNW 14 19 1021.2 - 1.2 - - - - - - -
19/06:30am 5.0 SSW 17 22 1020.9 - 1.2 - - - - - - -
19/06:15am 5.9 WSW 15 25 1020.8 - 1.2 - - - - - - -
19/06:00am 6.1 WSW 11 14 1020.8 R 1.2 Fine Mostly cloudy 18 <0.1 2.0 12 SW
19/05:30am 5.8 SSW 19 24 1020.5 - 1.2 - - - - - - -
19/05:28am 5.9 SW 20 26 1020.4 - 1.2 - - - - - - -
19/05:00am 6.2 WNW 12 19 1020.1 - 1.2 - - - - - - -
19/04:30am 5.9 WNW 18 22 1019.7 - 1.2 - - - - - - -
19/04:00am 6.2 SW 15 21 1019.6 - 1.2 - - - - - - -
19/03:30am 5.5 S 14 22 1019.5 - 1.2 - - - - - - -
19/03:15am 6.1 SSW 20 25 1019.2 - 1.2 - - - - - - -
19/03:00am 6.3 WSW 12 17 1019.5 - 1.2 - - - - - - -
19/02:30am 6.0 SW 13 20 1019.1 - 1.2 - - - - - - -
19/02:00am 5.9 SSW 17 23 1018.8 - 1.2 - - - - - - -
19/01:30am 5.7 SSW 15 20 1018.7 - 1.2 - - - - - - -
19/01:18am 5.5 SSW 16 19 1018.6 - 1.2 - - - - - - -
19/01:00am 4.9 SSE 21 29 1018.2 - 1.2 - - - - - - -
19/12:47am 5.5 S 23 24 1018.1 - 1.2 - - - - - - -
19/12:30am 5.8 SSW 16 24 1018.4 - 1.2 - - - - - - -
19/12:02am 5.9 S 19 29 1017.9 - 1.2 - - - - - - -
19/12:00am 5.8 SSW 18 23 1018.2 - 1.2 - - - - - - -
 
Date/Time
EST
Temp
°C
Wind Pressure Rain since
9am
mm
Weather Cloud Vis
km
Sea
Height
m
Swell
Dir  Spd
kts
Gust
kts
hPa Trend Height
m
Period
s
Dir
18/11:30pm 6.1 S 22 28 1017.7 - 1.2 - - - - - - -
18/11:00pm 6.0 S 19 27 1017.2 - 1.2 - - - - - - -
18/10:30pm 6.0 S 18 26 1017.0 - 1.2 - - - - - - -
18/10:19pm 5.9 S 23 33 1017.0 - 1.2 - - - - - - -
18/10:00pm 5.8 S 22 27 1016.5 - 1.2 - - - - - - -
18/09:53pm 6.1 S 21 23 1016.8 - 1.2 - - - - - - -
18/09:44pm 6.1 SSE 29 32 1016.0 - 1.2 - - - - - - -
18/09:30pm 5.8 S 19 25 1016.2 - 1.2 - - - - - - -
18/09:02pm 5.9 S 24 34 1016.0 - 1.2 - - - - - - -
18/09:00pm 5.9 S 25 34 1016.2 - 1.2 - - - - - - -
18/08:30pm 5.9 S 23 30 1015.5 - 1.2 - - - - - - -
18/08:00pm 5.6 S 27 32 1014.6 - 1.2 - - - - - - -
18/07:42pm 5.4 S 21 33 1014.4 - 1.2 - - - - - - -
18/07:39pm 5.2 S 17 24 1014.7 - 1.2 - - - - - - -
18/07:30pm 4.7 SW 7 11 1014.8 - 1.2 - - - - - - -
18/07:00pm 4.0 SE 16 24 1014.2 - 1.2 - - - - - - -
18/06:54pm 4.0 SSE 20 24 1014.0 - 1.2 - - - - - - -
18/06:47pm 4.0 S 21 24 1014.3 - 1.2 - - - - - - -
18/06:30pm 5.5 S 31 38 1013.1 - 1.0 - - - - - - -
18/06:27pm 5.7 S 29 36 1013.0 - 1.0 - - - - - - -
18/06:04pm 6.1 SSE 31 37 1012.0 - 1.0 - - - - - - -
18/06:00pm 6.2 S 28 41 1011.9 - 1.0 - - - - - - -
18/05:58pm 6.2 S 26 37 1012.1 - 1.0 - - - - - - -
18/05:30pm 6.1 S 31 35 1011.6 - 1.0 - - - - - - -
18/05:00pm 6.4 S 35 41 1010.6 - 1.0 - - - - - - -
18/04:30pm 6.2 S 32 39 1009.9 - 1.0 - - - - - - -
18/04:00pm 6.1 S 31 36 1009.3 - 1.0 - - - - - - -
18/03:35pm 6.4 S 26 36 1008.8 - 1.0 - - - - - - -
18/03:30pm 6.1 S 26 31 1009.0 - 1.0 - - - - - - -
18/03:11pm 5.4 S 25 28 1008.7 - 1.0 - - - - - - -
18/03:00pm 5.6 SSE 28 40 1008.2 - 1.0 - - - - - - -
18/02:51pm 6.0 S 30 40 1007.5 - 0.6 - - - - - - -
18/02:30pm 5.7 S 31 37 1007.6 - 0.4 - - - - - - -
18/02:08pm 4.9 S 36 46 1007.4 - 0.4 - - - - - - -
18/02:00pm 6.0 S 37 45 1006.6 - 0.4 - - - - - - -
18/01:30pm 6.0 SSE 34 39 1005.9 - 0.4 - - - - - - -
18/01:20pm 5.8 SSE 35 38 1005.8 - 0.4 - - - - - - -
18/01:00pm 5.6 S 30 36 1006.2 - 0.2 - - - - - - -
18/12:46pm 5.5 S 24 35 1005.6 - 0.2 - - - - - - -
18/12:44pm 5.3 S 21 23 1006.0 - 0.2 - - - - - - -
18/12:33pm 4.3 E 17 28 1005.7 - 0.2 - - - - - - -
18/12:32pm 4.2 ESE 20 28 1005.6 - 0.2 - - - - - - -
18/12:30pm 4.3 SSE 36 46 1005.2 - 0.2 - - - - - - -
18/12:18pm 5.6 SSE 37 47 1004.5 - 0.2 - - - - - - -
18/12:16pm 5.7 SSE 25 36 1005.2 - 0.2 - - - - - - -
18/12:13pm 5.2 SSE 25 28 1005.5 - 0.2 - - - - - - -
18/12:00pm 5.5 SSE 37 42 1004.7 - 0.2 - - - - - - -
18/11:38am 5.9 SSE 37 47 1004.4 - 0.2 - - - - - - -
18/11:30am 5.7 SSE 41 48 1003.7 - 0.2 - - - - - - -
18/11:00am 5.9 S 36 41 1004.0 - 0.2 - - - - - - -
18/10:30am 5.9 S 37 42 1003.3 - 0.2 - - - - - - -
18/10:00am 6.1 S 32 37 1002.9 - 0.0 - - - - - - -
18/09:30am 6.1 S 30 36 1002.6 - 0.0 - - - - - - -
18/09:00am 6.3 S 29 35 1002.0 R 7.0 Recent precip. Mostly cloudy 18 2 3.0 11 S
18/08:30am 6.1 S 33 39 1001.0 - 7.0 - - - - - - -
18/08:00am 6.0 S 29 34 1000.6 - 7.0 - - - - - - -
18/07:30am 5.8 S 27 31 1000.2 - 7.0 - - - - - - -
18/07:00am 6.0 S 21 26 999.7 - 7.0 - - - - - - -
18/06:30am 5.7 S 25 29 999.1 - 7.0 - - - - - - -
18/06:00am 6.1 S 27 - 998.1 R - Fine Mostly cloudy 18 1 2.5 12 SW
18/05:58am 6.3 S 24 37 998.0 - 7.0 - - - - - - -
18/05:30am 6.2 S 21 28 998.0 - 7.0 - - - - - - -
18/05:00am 6.3 S 21 26 997.4 - 6.8 - - - - - - -
18/04:30am 6.3 S 20 27 997.0 - 6.8 - - - - - - -
18/04:00am 6.3 S 26 32 996.3 - 6.8 - - - - - - -
18/03:30am 6.4 S 24 29 996.0 - 6.8 - - - - - - -
18/03:00am 6.4 S 26 30 995.6 - 6.8 - - - - - - -
18/02:30am 6.1 S 27 31 995.2 - 6.8 - - - - - - -
18/02:00am 6.5 S 23 28 994.8 - 6.8 - - - - - - -
18/01:51am 6.5 SSW 17 27 995.2 - 6.6 - - - - - - -
18/01:30am 5.6 SSW 10 15 995.2 - 6.6 - - - - - - -
18/01:00am 5.8 WSW 15 19 995.0 - 6.4 - - - - - - -
18/12:58am 5.8 WSW 15 17 995.0 - 6.4 - - - - - - -
18/12:32am 6.1 SSW 21 25 994.6 - 6.4 - - - - - - -
18/12:30am 6.2 WSW 15 26 994.6 - 6.4 - - - - - - -
18/12:00am 6.6 W 13 17 994.4 - 6.0 - - - - - - -
 
Date/Time
EST
Temp
°C
Wind Pressure Rain since
9am
mm
Weather Cloud Vis
km
Sea
Height
m
Swell
Dir  Spd
kts
Gust
kts
hPa Trend Height
m
Period
s
Dir
17/11:30pm 6.6 WSW 16 20 994.1 - 6.0 - - - - - - -
17/11:00pm 6.9 W 16 22 993.9 - 6.0 - - - - - - -
17/10:50pm 6.4 W 15 19 993.8 - 6.0 - - - - - - -
17/10:30pm 6.8 NW 24 32 993.5 - 5.8 - - - - - - -
17/10:19pm 6.9 NW 30 35 993.0 - 5.8 - - - - - - -
17/10:16pm 7.2 W 18 30 993.4 - 5.6 - - - - - - -
17/10:00pm 7.2 W 16 23 993.5 - 5.6 - - - - - - -
17/09:40pm 7.3 W 17 24 993.2 - 5.6 - - - - - - -
17/09:30pm 7.1 NW 29 32 992.7 - 5.6 - - - - - - -
17/09:28pm 7.1 NW 29 32 992.6 - 5.6 - - - - - - -
17/09:15pm 7.2 W 21 31 993.1 - 5.6 - - - - - - -
17/09:00pm 7.5 WNW 23 29 992.9 - 5.6 - - - - - - -
17/08:30pm 7.9 WNW 23 29 992.7 - 5.6 - - - - - - -
17/08:00pm 7.5 WNW 26 30 992.1 - 5.6 - - - - - - -
17/07:30pm 7.6 WNW 25 29 991.9 - 5.6 - - - - - - -
17/07:00pm 7.5 WNW 28 33 991.4 - 5.6 - - - - - - -
17/06:30pm 7.6 WNW 28 32 990.9 - 5.6 - - - - - - -
17/06:00pm 7.4 WNW 27 35 990.5 - 5.6 - - - - - - -
17/05:30pm 7.3 WNW 27 33 990.0 - 5.6 - - - - - - -
17/05:00pm 7.4 WNW 27 33 989.5 - 5.6 - - - - - - -
17/04:30pm 7.5 WNW 28 34 989.1 - 5.4 - - - - - - -
17/04:00pm 7.3 NW 25 29 988.4 - 5.4 - - - - - - -
17/03:30pm 7.7 NW 33 36 987.5 - 4.8 - - - - - - -
17/03:28pm 7.6 NW 34 36 987.7 - 4.8 - - - - - - -
17/03:00pm 7.1 NW 44 52 986.7 - 4.8 - - - - - - -
17/02:42pm 6.7 NW 40 52 986.5 - 4.0 - - - - - - -
17/02:30pm 7.6 NW 33 39 986.9 - 3.2 - - - - - - -
17/02:05pm 7.1 NW 35 40 986.8 - 3.2 - - - - - - -
17/02:00pm 7.4 WNW 33 39 987.1 - 3.2 - - - - - - -
17/01:30pm 7.5 NW 30 36 986.9 - 3.2 - - - - - - -
17/01:00pm 7.8 NW 36 46 986.7 - 1.8 - - - - - - -
17/12:57pm 7.3 NW 36 46 986.1 - 1.8 - - - - - - -
17/12:30pm 8.0 NW 39 45 986.6 - 0.8 - - - - - - -
17/12:16pm 7.3 WNW 41 52 986.3 - 0.8 - - - - - - -
17/12:00pm 9.5 NW 42 48 986.4 - 0.8 - - - - - - -
17/11:30am 8.6 NW 46 52 985.4 - 0.8 - - - - - - -
17/11:15am 8.4 NW 45 55 985.9 - 0.8 - - - - - - -
17/11:10am 8.3 NW 51 55 985.2 - 0.8 - - - - - - -
17/11:00am 8.1 NW 39 53 986.8 - 0.6 - - - - - - -
17/10:30am 7.8 NW 40 50 986.9 - 0.6 - - - - - - -
17/10:27am 9.0 NW 42 52 986.7 - 0.6 - - - - - - -
17/10:00am 8.8 NW 42 48 986.0 - 0.6 - - - - - - -
17/09:30am 7.3 NW 40 53 986.4 - 0.6 - - - - - - -
17/09:26am 7.3 NW 43 53 986.6 - 0.4 - - - - - - -
17/09:00am 8.8 NW 46 51 985.1 R 11.6 Showers Mostly cloudy 15 2 4.0 10 SW
17/08:30am 8.6 NW 45 51 985.2 - 11.6 - - - - - - -
17/08:00am 8.7 NW 44 50 985.2 - 11.6 - - - - - - -
17/07:30am 8.8 NW 46 51 984.7 - 11.4 - - - - - - -
17/07:00am 8.7 NW 47 53 984.2 - 11.4 - - - - - - -
17/06:38am 8.6 NW 44 46 984.0 - 11.4 - - - - - - -
17/06:30am 8.0 NW 33 45 984.5 - 11.4 - - - - - - -
17/06:00am 8.2 NW 40 47 983.7 F 11.4 Showers Mostly cloudy 10 3 4.0 12 SW
17/05:36am 7.6 NW 38 48 984.2 - 11.2 - - - - - - -
17/05:30am 7.2 NW 43 48 983.7 - 11.2 - - - - - - -
17/05:23am 7.6 NW 33 43 984.5 - 11.0 - - - - - - -
17/05:00am 7.9 NW 39 44 983.8 - 10.0 - - - - - - -
17/04:30am 8.5 NW 45 54 983.1 - 10.0 - - - - - - -
17/04:23am 8.8 NW 43 54 982.5 - 10.0 - - - - - - -
17/04:00am 9.2 NW 43 50 983.2 - 10.0 - - - - - - -
17/03:30am 9.3 NW 42 48 983.3 - 10.0 - - - - - - -
17/03:00am 9.2 NW 42 47 983.7 - 10.0 - - - - - - -
17/02:30am 9.3 NW 45 50 983.2 - 10.0 - - - - - - -
17/02:00am 8.8 NW 43 49 983.3 - 10.0 - - - - - - -
17/01:40am 8.2 NW 51 61 983.1 - 10.0 - - - - - - -
17/01:30am 9.2 NW 51 60 982.2 - 10.0 - - - - - - -
17/01:25am 9.4 NW 49 53 983.3 - 10.0 - - - - - - -
17/01:00am 9.2 NNW 39 51 983.8 - 10.0 - - - - - - -
17/12:58am 9.2 NNW 41 51 983.8 - 10.0 - - - - - - -
17/12:30am 9.1 NW 43 50 983.4 - 10.0 - - - - - - -
17/12:00am 9.3 NW 45 54 983.2 - 10.0 - - - - - - -
 
Date/Time
EST
Temp
°C
Wind Pressure Rain since
9am
mm
Weather Cloud Vis
km
Sea
Height
m
Swell
Dir  Spd
kts
Gust
kts
hPa Trend Height
m
Period
s
Dir
16/11:49pm 9.1 NW 42 52 983.6 - 10.0 - - - - - - -
16/11:30pm 9.4 NW 47 56 983.6 - 9.8 - - - - - - -
16/11:05pm 9.2 NW 49 59 983.6 - 9.6 - - - - - - -
16/11:00pm 9.2 NW 49 58 983.6 - 9.6 - - - - - - -
16/10:30pm 9.1 NW 53 61 982.3 - 9.6 - - - - - - -
16/10:03pm 9.1 NW 53 63 982.5 - 9.6 - - - - - - -
16/10:00pm 9.3 NW 53 61 982.4 - 9.6 - - - - - - -
16/09:54pm 9.0 NW 55 61 982.4 - 9.4 - - - - - - -
16/09:45pm 9.3 NW 44 55 982.8 - 9.4 - - - - - - -
16/09:30pm 8.5 NW 46 54 983.4 - 9.2 - - - - - - -
16/09:05pm 9.1 NW 50 60 982.3 - 9.0 - - - - - - -
16/09:00pm 8.8 NW 50 56 982.6 - 9.0 - - - - - - -
16/08:39pm 7.6 NW 50 60 982.6 - 8.8 - - - - - - -
16/08:30pm 8.5 NW 51 59 982.0 - 8.8 - - - - - - -
16/08:00pm 8.3 NW 52 61 981.7 - 8.4 - - - - - - -
16/07:50pm 7.2 NW 54 64 981.1 - 8.2 - - - - - - -
16/07:30pm 9.8 NW 53 61 981.3 - 6.4 - - - - - - -
16/07:15pm 9.8 NW 55 65 980.7 - 6.4 - - - - - - -
16/07:00pm 9.6 NW 55 63 979.8 - 6.4 - - - - - - -
16/06:30pm 9.6 NW 55 63 979.7 - 6.4 - - - - - - -
16/06:00pm 9.4 NW 56 67 978.8 - 6.2 - - - - - - -
16/05:30pm 9.5 NW 59 70 977.6 - 6.2 - - - - - - -
16/05:00pm 9.3 NW 55 66 977.4 - 6.0 - - - - - - -
16/04:30pm 9.3 NW 53 66 977.6 - 5.2 - - - - - - -
16/04:00pm 9.3 NW 55 65 976.2 - 5.0 - - - - - - -
16/03:47pm 9.1 NNW 47 57 976.5 - 4.8 - - - - - - -
16/03:45pm 8.9 NNW 46 55 976.8 - 4.8 - - - - - - -
16/03:38pm 7.8 NW 61 64 975.7 - 4.8 - - - - - - -
16/03:36pm 8.5 NW 48 67 976.7 - 4.6 - - - - - - -
16/03:30pm 10.3 NNW 47 57 976.6 - 4.0 - - - - - - -
16/03:00pm 10.0 NNW 47 58 976.5 - 4.0 - - - - - - -
16/02:52pm 10.1 NW 46 57 976.2 - 3.8 - - - - - - -
16/02:30pm 9.8 NNW 47 56 976.5 - 3.8 - - - - - - -
16/02:17pm 9.8 NNW 42 52 976.8 - 3.8 - - - - - - -
16/02:00pm 9.5 NNW 45 54 976.7 - 3.6 - - - - - - -

Other Formats:

Comma delimited format used in spreadsheet applications
http://www.bom.gov.au/fwo/IDT60701/IDT60701.94962.axf

JavaScript Object Notation format (JSON) in row-major order
http://www.bom.gov.au/fwo/IDT60701/IDT60701.94962.json